sensor_id;sensor_type;location;lat;lon;timestamp;pressure;altitude;pressure_sealevel;temperature;humidity
11440;BME280;5776;51.814;4.510;2023-02-12T00:02:17;103910.34;;;7.55;100.00
11440;BME280;5776;51.814;4.510;2023-02-12T00:04:43;103915.75;;;7.55;100.00
11440;BME280;5776;51.814;4.510;2023-02-12T00:07:09;103912.41;;;7.53;100.00
11440;BME280;5776;51.814;4.510;2023-02-12T00:09:36;103916.97;;;7.52;100.00
11440;BME280;5776;51.814;4.510;2023-02-12T00:12:02;103915.94;;;7.53;100.00
11440;BME280;5776;51.814;4.510;2023-02-12T00:14:28;103912.41;;;7.53;100.00
11440;BME280;5776;51.814;4.510;2023-02-12T00:16:54;103914.28;;;7.52;100.00
11440;BME280;5776;51.814;4.510;2023-02-12T00:19:20;103909.88;;;7.51;100.00
11440;BME280;5776;51.814;4.510;2023-02-12T00:21:46;103903.66;;;7.51;100.00
11440;BME280;5776;51.814;4.510;2023-02-12T00:24:12;103908.00;;;7.52;100.00
11440;BME280;5776;51.814;4.510;2023-02-12T00:26:38;103910.72;;;7.52;100.00
11440;BME280;5776;51.814;4.510;2023-02-12T00:29:04;103913.63;;;7.50;100.00
11440;BME280;5776;51.814;4.510;2023-02-12T00:31:30;103900.09;;;7.50;100.00
11440;BME280;5776;51.814;4.510;2023-02-12T00:33:57;103908.22;;;7.50;100.00
11440;BME280;5776;51.814;4.510;2023-02-12T00:36:26;103906.53;;;7.49;100.00
11440;BME280;5776;51.814;4.510;2023-02-12T00:38:54;103909.44;;;7.48;100.00
11440;BME280;5776;51.814;4.510;2023-02-12T00:41:21;103908.59;;;7.47;100.00
11440;BME280;5776;51.814;4.510;2023-02-12T00:43:48;103908.59;;;7.47;100.00
11440;BME280;5776;51.814;4.510;2023-02-12T00:46:15;103905.03;;;7.47;100.00
11440;BME280;5776;51.814;4.510;2023-02-12T00:48:41;103901.69;;;7.45;100.00
11440;BME280;5776;51.814;4.510;2023-02-12T00:51:07;103908.78;;;7.46;100.00
11440;BME280;5776;51.814;4.510;2023-02-12T00:53:33;103911.69;;;7.44;100.00
11440;BME280;5776;51.814;4.510;2023-02-12T00:56:00;103904.59;;;7.43;100.00
11440;BME280;5776;51.814;4.510;2023-02-12T00:58:26;103903.94;;;7.41;100.00
11440;BME280;5776;51.814;4.510;2023-02-12T01:00:53;103905.00;;;7.40;100.00
11440;BME280;5776;51.814;4.510;2023-02-12T01:03:19;103901.25;;;7.41;100.00
11440;BME280;5776;51.814;4.510;2023-02-12T01:05:45;103909.38;;;7.41;100.00
11440;BME280;5776;51.814;4.510;2023-02-12T01:08:13;103907.69;;;7.40;100.00
11440;BME280;5776;51.814;4.510;2023-02-12T01:10:40;103905.81;;;7.41;100.00
11440;BME280;5776;51.814;4.510;2023-02-12T01:13:05;103899.75;;;7.39;100.00
11440;BME280;5776;51.814;4.510;2023-02-12T01:15:31;103898.94;;;7.38;100.00
11440;BME280;5776;51.814;4.510;2023-02-12T01:17:57;103907.06;;;7.38;100.00
11440;BME280;5776;51.814;4.510;2023-02-12T01:20:24;103902.66;;;7.37;100.00
11440;BME280;5776;51.814;4.510;2023-02-12T01:22:50;103904.34;;;7.38;100.00
11440;BME280;5776;51.814;4.510;2023-02-12T01:25:17;103900.16;;;7.35;100.00
11440;BME280;5776;51.814;4.510;2023-02-12T01:27:43;103903.69;;;7.36;100.00
11440;BME280;5776;51.814;4.510;2023-02-12T01:30:11;103910.97;;;7.35;100.00
11440;BME280;5776;51.814;4.510;2023-02-12T01:32:40;103919.91;;;7.36;100.00
11440;BME280;5776;51.814;4.510;2023-02-12T01:35:07;103909.09;;;7.36;100.00
11440;BME280;5776;51.814;4.510;2023-02-12T01:37:35;103910.75;;;7.37;100.00
11440;BME280;5776;51.814;4.510;2023-02-12T01:40:02;103906.41;;;7.36;100.00
11440;BME280;5776;51.814;4.510;2023-02-12T01:42:28;103903.31;;;7.39;100.00
11440;BME280;5776;51.814;4.510;2023-02-12T01:47:43;103894.53;;;7.37;100.00
11440;BME280;5776;51.814;4.510;2023-02-12T01:50:13;103898.94;;;7.38;100.00
11440;BME280;5776;51.814;4.510;2023-02-12T01:52:44;103900.59;;;7.39;100.00
11440;BME280;5776;51.814;4.510;2023-02-12T01:55:12;103903.31;;;7.39;100.00
11440;BME280;5776;51.814;4.510;2023-02-12T01:57:40;103907.88;;;7.39;100.00
11440;BME280;5776;51.814;4.510;2023-02-12T02:00:11;103909.75;;;7.38;100.00
11440;BME280;5776;51.814;4.510;2023-02-12T02:02:38;103919.09;;;7.35;100.00
11440;BME280;5776;51.814;4.510;2023-02-12T02:05:05;103909.88;;;7.30;100.00
11440;BME280;5776;51.814;4.510;2023-02-12T02:07:32;103908.19;;;7.29;100.00
11440;BME280;5776;51.814;4.510;2023-02-12T02:09:58;103914.25;;;7.31;100.00
11440;BME280;5776;51.814;4.510;2023-02-12T02:12:25;103915.91;;;7.32;100.00
11440;BME280;5776;51.814;4.510;2023-02-12T02:15:10;103912.59;;;7.30;100.00
11440;BME280;5776;51.814;4.510;2023-02-12T02:18:05;103909.00;;;7.29;100.00
11440;BME280;5776;51.814;4.510;2023-02-12T02:37:26;103911.28;;;7.26;100.00
11440;BME280;5776;51.814;4.510;2023-02-12T02:40:12;103904.22;;;7.25;100.00
11440;BME280;5776;51.814;4.510;2023-02-12T02:42:58;103906.06;;;7.24;100.00
11440;BME280;5776;51.814;4.510;2023-02-12T02:48:13;103907.91;;;7.24;100.00
11440;BME280;5776;51.814;4.510;2023-02-12T02:50:45;103902.50;;;7.24;100.00
11440;BME280;5776;51.814;4.510;2023-02-12T02:53:42;103899.81;;;7.24;100.00
11440;BME280;5776;51.814;4.510;2023-02-12T02:56:15;103908.75;;;7.24;100.00
11440;BME280;5776;51.814;4.510;2023-02-12T02:58:58;103899.16;;;7.22;100.00
11440;BME280;5776;51.814;4.510;2023-02-12T03:01:30;103894.97;;;7.19;100.00
11440;BME280;5776;51.814;4.510;2023-02-12T03:04:03;103895.63;;;7.21;100.00
11440;BME280;5776;51.814;4.510;2023-02-12T03:06:40;103899.53;;;7.19;100.00
11440;BME280;5776;51.814;4.510;2023-02-12T03:09:40;103898.91;;;7.17;100.00
11440;BME280;5776;51.814;4.510;2023-02-12T03:12:16;103891.63;;;7.17;100.00
11440;BME280;5776;51.814;4.510;2023-02-12T03:14:52;103886.84;;;7.19;100.00
11440;BME280;5776;51.814;4.510;2023-02-12T03:17:24;103898.91;;;7.17;100.00
11440;BME280;5776;51.814;4.510;2023-02-12T03:19:54;103889.94;;;7.16;100.00
11440;BME280;5776;51.814;4.510;2023-02-12T03:22:36;103891.81;;;7.16;100.00
11440;BME280;5776;51.814;4.510;2023-02-12T03:25:22;103891.81;;;7.16;100.00
11440;BME280;5776;51.814;4.510;2023-02-12T03:28:20;103903.47;;;7.16;100.00
11440;BME280;5776;51.814;4.510;2023-02-12T03:30:57;103902.63;;;7.16;100.00
11440;BME280;5776;51.814;4.510;2023-02-12T03:33:38;103893.22;;;7.11;100.00
11440;BME280;5776;51.814;4.510;2023-02-12T03:38:53;103893.69;;;7.15;100.00
11440;BME280;5776;51.814;4.510;2023-02-12T03:41:30;103889.31;;;7.14;100.00
11440;BME280;5776;51.814;4.510;2023-02-12T03:44:14;103886.97;;;7.11;100.00
11440;BME280;5776;51.814;4.510;2023-02-12T03:49:26;103884.94;;;7.13;100.00
11440;BME280;5776;51.814;4.510;2023-02-12T03:51:54;103885.31;;;7.10;100.00
11440;BME280;5776;51.814;4.510;2023-02-12T03:54:20;103889.50;;;7.12;100.00
11440;BME280;5776;51.814;4.510;2023-02-12T03:56:55;103878.22;;;7.09;100.00
11440;BME280;5776;51.814;4.510;2023-02-12T03:59:23;103887.38;;;7.08;100.00
11440;BME280;5776;51.814;4.510;2023-02-12T04:01:51;103893.59;;;7.08;100.00
11440;BME280;5776;51.814;4.510;2023-02-12T04:04:18;103890.25;;;7.06;100.00
11440;BME280;5776;51.814;4.510;2023-02-12T04:06:46;103886.53;;;7.07;100.00
11440;BME280;5776;51.814;4.510;2023-02-12T04:09:14;103893.59;;;7.08;100.00
11440;BME280;5776;51.814;4.510;2023-02-12T04:12:11;103899.00;;;7.08;100.00
11440;BME280;5776;51.814;4.510;2023-02-12T04:23:13;103913.91;;;7.04;100.00
11440;BME280;5776;51.814;4.510;2023-02-12T04:28:55;103916.63;;;7.04;100.00
11440;BME280;5776;51.814;4.510;2023-02-12T04:31:32;103927.66;;;7.03;100.00
11440;BME280;5776;51.814;4.510;2023-02-12T04:34:06;103920.38;;;7.03;100.00
11440;BME280;5776;51.814;4.510;2023-02-12T04:36:37;103926.81;;;7.02;100.00
11440;BME280;5776;51.814;4.510;2023-02-12T04:39:11;103929.50;;;7.02;100.00
11440;BME280;5776;51.814;4.510;2023-02-12T04:41:41;103928.47;;;7.03;100.00
11440;BME280;5776;51.814;4.510;2023-02-12T04:44:20;103934.25;;;7.00;100.00
11440;BME280;5776;51.814;4.510;2023-02-12T04:46:47;103931.34;;;7.02;100.00
11440;BME280;5776;51.814;4.510;2023-02-12T04:49:15;103928.47;;;7.03;100.00
11440;BME280;5776;51.814;4.510;2023-02-12T04:51:41;103932.56;;;6.99;100.00
11440;BME280;5776;51.814;4.510;2023-02-12T04:54:08;103932.78;;;6.98;100.00
11440;BME280;5776;51.814;4.510;2023-02-12T04:56:34;103930.91;;;6.98;100.00
11440;BME280;5776;51.814;4.510;2023-02-12T04:58:59;103930.91;;;6.98;100.00
11440;BME280;5776;51.814;4.510;2023-02-12T05:01:25;103929.22;;;6.97;100.00
11440;BME280;5776;51.814;4.510;2023-02-12T05:03:51;103931.75;;;6.99;100.00
11440;BME280;5776;51.814;4.510;2023-02-12T05:06:17;103925.31;;;7.00;100.00
11440;BME280;5776;51.814;4.510;2023-02-12T05:08:43;103922.81;;;6.98;100.00
11440;BME280;5776;51.814;4.510;2023-02-12T05:11:10;103925.50;;;6.98;100.00
11440;BME280;5776;51.814;4.510;2023-02-12T05:13:36;103923.81;;;6.97;100.00
11440;BME280;5776;51.814;4.510;2023-02-12T05:16:04;103922.97;;;6.97;100.00
11440;BME280;5776;51.814;4.510;2023-02-12T05:18:31;103926.72;;;6.96;100.00
11440;BME280;5776;51.814;4.510;2023-02-12T05:20:59;103921.50;;;6.94;100.00
11440;BME280;5776;51.814;4.510;2023-02-12T05:23:27;103930.44;;;6.95;100.00
11440;BME280;5776;51.814;4.510;2023-02-12T05:25:53;103922.53;;;6.93;100.00
11440;BME280;5776;51.814;4.510;2023-02-12T05:28:19;103924.00;;;6.96;100.00
11440;BME280;5776;51.814;4.510;2023-02-12T05:30:45;103928.38;;;6.97;100.00
11440;BME280;5776;51.814;4.510;2023-02-12T05:33:11;103925.22;;;6.93;100.00
11440;BME280;5776;51.814;4.510;2023-02-12T05:35:37;103925.88;;;6.95;100.00
11440;BME280;5776;51.814;4.510;2023-02-12T05:38:03;103928.19;;;6.98;100.00
11440;BME280;5776;51.814;4.510;2023-02-12T05:40:29;103916.34;;;6.99;100.00
11440;BME280;5776;51.814;4.510;2023-02-12T05:42:55;103926.72;;;6.96;100.00
11440;BME280;5776;51.814;4.510;2023-02-12T05:45:20;103921.50;;;6.94;100.00
11440;BME280;5776;51.814;4.510;2023-02-12T05:47:46;103924.19;;;6.94;100.00
11440;BME280;5776;51.814;4.510;2023-02-12T05:50:12;103927.09;;;6.92;100.00
11440;BME280;5776;51.814;4.510;2023-02-12T05:52:38;103925.03;;;6.95;100.00
11440;BME280;5776;51.814;4.510;2023-02-12T05:55:04;103930.63;;;6.93;100.00
11440;BME280;5776;51.814;4.510;2023-02-12T05:57:30;103925.88;;;6.95;100.00
11440;BME280;5776;51.814;4.510;2023-02-12T05:59:56;103931.47;;;6.93;100.00
11440;BME280;5776;51.814;4.510;2023-02-12T06:02:22;103930.63;;;6.93;100.00
11440;BME280;5776;51.814;4.510;2023-02-12T06:04:48;103931.63;;;6.92;100.00
11440;BME280;5776;51.814;4.510;2023-02-12T06:07:13;103930.81;;;6.91;100.00
11440;BME280;5776;51.814;4.510;2023-02-12T06:09:39;103927.28;;;6.91;100.00
11440;BME280;5776;51.814;4.510;2023-02-12T06:12:05;103933.34;;;6.93;100.00
11440;BME280;5776;51.814;4.510;2023-02-12T06:14:31;103925.03;;;6.95;100.00
11440;BME280;5776;51.814;4.510;2023-02-12T06:16:57;103932.13;;;6.96;100.00
11440;BME280;5776;51.814;4.510;2023-02-12T06:19:23;103935.66;;;6.96;100.00
11440;BME280;5776;51.814;4.510;2023-02-12T06:21:49;103933.34;;;6.93;100.00
11440;BME280;5776;51.814;4.510;2023-02-12T06:24:15;103936.88;;;6.93;100.00
11440;BME280;5776;51.814;4.510;2023-02-12T06:26:42;103937.31;;;6.97;100.00
11440;BME280;5776;51.814;4.510;2023-02-12T06:29:08;103934.63;;;6.97;100.00
11440;BME280;5776;51.814;4.510;2023-02-12T06:31:35;103941.06;;;6.96;100.00
11440;BME280;5776;51.814;4.510;2023-02-12T06:34:05;103930.91;;;6.98;100.00
11440;BME280;5776;51.814;4.510;2023-02-12T06:36:31;103933.44;;;7.00;100.00
11440;BME280;5776;51.814;4.510;2023-02-12T06:38:57;103933.44;;;7.00;100.00
11440;BME280;5776;51.814;4.510;2023-02-12T06:41:23;103932.22;;;7.02;100.00
11440;BME280;5776;51.814;4.510;2023-02-12T06:43:49;103930.34;;;7.03;100.00
11440;BME280;5776;51.814;4.510;2023-02-12T06:46:15;103943.03;;;7.02;100.00
11440;BME280;5776;51.814;4.510;2023-02-12T06:48:41;103933.22;;;7.01;100.00
11440;BME280;5776;51.814;4.510;2023-02-12T06:51:12;103931.75;;;6.99;100.00
11440;BME280;5776;51.814;4.510;2023-02-12T06:53:39;103943.03;;;7.02;100.00
11440;BME280;5776;51.814;4.510;2023-02-12T06:56:07;103941.59;;;7.06;100.00
11440;BME280;5776;51.814;4.510;2023-02-12T06:58:37;103945.50;;;7.19;100.00
11440;BME280;5776;51.814;4.510;2023-02-12T07:01:20;103956.41;;;7.25;100.00
11440;BME280;5776;51.814;4.510;2023-02-12T07:03:52;103954.34;;;7.27;100.00
11440;BME280;5776;51.814;4.510;2023-02-12T07:06:19;103960.38;;;7.29;100.00
11440;BME280;5776;51.814;4.510;2023-02-12T07:08:45;103961.88;;;7.32;100.00
11440;BME280;5776;51.814;4.510;2023-02-12T07:11:11;103959.16;;;7.32;100.00
11440;BME280;5776;51.814;4.510;2023-02-12T07:13:39;103969.63;;;7.35;100.00
11440;BME280;5776;51.814;4.510;2023-02-12T07:16:07;103970.63;;;7.34;100.00
11440;BME280;5776;51.814;4.510;2023-02-12T07:18:34;103966.28;;;7.33;100.00
11440;BME280;5776;51.814;4.510;2023-02-12T07:21:00;103970.47;;;7.35;100.00
11440;BME280;5776;51.814;4.510;2023-02-12T07:23:27;103971.28;;;7.36;100.00
11440;BME280;5776;51.814;4.510;2023-02-12T07:25:57;103976.69;;;7.36;100.00
11440;BME280;5776;51.814;4.510;2023-02-12T07:28:23;103972.97;;;7.37;100.00
11440;BME280;5776;51.814;4.510;2023-02-12T07:30:49;103979.22;;;7.38;100.00
11440;BME280;5776;51.814;4.510;2023-02-12T07:33:16;103985.25;;;7.40;100.00
11440;BME280;5776;51.814;4.510;2023-02-12T07:35:42;103983.59;;;7.39;100.00
11440;BME280;5776;51.814;4.510;2023-02-12T07:38:07;103994.22;;;7.40;100.00
11440;BME280;5776;51.814;4.510;2023-02-12T07:40:33;103994.22;;;7.40;100.00
11440;BME280;5776;51.814;4.510;2023-02-12T07:42:59;103992.38;;;7.41;100.00
11440;BME280;5776;51.814;4.510;2023-02-12T07:45:25;103991.53;;;7.40;100.00
11440;BME280;5776;51.814;4.510;2023-02-12T07:47:51;103995.91;;;7.41;100.00
11440;BME280;5776;51.814;4.510;2023-02-12T07:50:17;104002.97;;;7.42;100.00
11440;BME280;5776;51.814;4.510;2023-02-12T07:52:44;103994.84;;;7.42;100.00
11440;BME280;5776;51.814;4.510;2023-02-12T07:55:09;103997.56;;;7.42;100.00
11440;BME280;5776;51.814;4.510;2023-02-12T07:57:35;104000.25;;;7.42;100.00
11440;BME280;5776;51.814;4.510;2023-02-12T08:00:03;103994.84;;;7.42;100.00
11440;BME280;5776;51.814;4.510;2023-02-12T08:02:29;103997.56;;;7.42;100.00
11440;BME280;5776;51.814;4.510;2023-02-12T08:04:56;103993.84;;;7.43;100.00
11440;BME280;5776;51.814;4.510;2023-02-12T08:07:22;103995.50;;;7.44;100.00
11440;BME280;5776;51.814;4.510;2023-02-12T08:09:48;103991.97;;;7.44;100.00
11440;BME280;5776;51.814;4.510;2023-02-12T08:12:14;103999.91;;;7.45;100.00
11440;BME280;5776;51.814;4.510;2023-02-12T08:14:40;104005.31;;;7.45;100.00
11440;BME280;5776;51.814;4.510;2023-02-12T08:17:06;104000.75;;;7.46;100.00
11440;BME280;5776;51.814;4.510;2023-02-12T08:19:33;104006.16;;;7.46;100.00
11440;BME280;5776;51.814;4.510;2023-02-12T08:22:00;103998.88;;;7.46;100.00
11440;BME280;5776;51.814;4.510;2023-02-12T08:24:28;104004.09;;;7.48;100.00
11440;BME280;5776;51.814;4.510;2023-02-12T08:26:55;103997.81;;;7.47;100.00
11440;BME280;5776;51.814;4.510;2023-02-12T08:29:24;104001.19;;;7.49;100.00
11440;BME280;5776;51.814;4.510;2023-02-12T08:31:58;103999.53;;;7.48;100.00
11440;BME280;5776;51.814;4.510;2023-02-12T08:34:26;104002.28;;;7.19;100.00
11440;BME280;5776;51.814;4.510;2023-02-12T08:36:53;104003.09;;;7.19;100.00
11440;BME280;5776;51.814;4.510;2023-02-12T08:39:19;104008.69;;;7.32;100.00
11440;BME280;5776;51.814;4.510;2023-02-12T08:41:45;104011.28;;;7.41;100.00
11440;BME280;5776;51.814;4.510;2023-02-12T08:44:13;104016.13;;;7.45;100.00
11440;BME280;5776;51.814;4.510;2023-02-12T08:46:43;104017.97;;;7.45;100.00
11440;BME280;5776;51.814;4.510;2023-02-12T08:49:13;104022.16;;;7.47;100.00
11440;BME280;5776;51.814;4.510;2023-02-12T08:51:46;104020.31;;;7.48;100.00
11440;BME280;5776;51.814;4.510;2023-02-12T08:54:15;104023.03;;;7.48;100.00
11440;BME280;5776;51.814;4.510;2023-02-12T08:56:42;104023.88;;;7.48;100.00
11440;BME280;5776;51.814;4.510;2023-02-12T08:59:13;104021.81;;;7.50;100.00
11440;BME280;5776;51.814;4.510;2023-02-12T09:01:40;104020.13;;;7.49;100.00
11440;BME280;5776;51.814;4.510;2023-02-12T09:04:15;104020.13;;;7.49;100.00
11440;BME280;5776;51.814;4.510;2023-02-12T09:06:43;104026.38;;;7.50;100.00
11440;BME280;5776;51.814;4.510;2023-02-12T09:09:08;104026.00;;;7.53;100.00
11440;BME280;5776;51.814;4.510;2023-02-12T09:11:34;104021.59;;;7.52;100.00
11440;BME280;5776;51.814;4.510;2023-02-12T09:14:05;104026.00;;;7.53;100.00
11440;BME280;5776;51.814;4.510;2023-02-12T09:16:33;104032.25;;;7.53;100.00
11440;BME280;5776;51.814;4.510;2023-02-12T09:19:00;104033.91;;;7.54;100.00
11440;BME280;5776;51.814;4.510;2023-02-12T09:21:26;104032.91;;;7.55;100.00
11440;BME280;5776;51.814;4.510;2023-02-12T09:23:52;104037.47;;;7.55;100.00
11440;BME280;5776;51.814;4.510;2023-02-12T09:26:20;104035.59;;;7.55;100.00
11440;BME280;5776;51.814;4.510;2023-02-12T09:28:48;104049.13;;;7.55;100.00
11440;BME280;5776;51.814;4.510;2023-02-12T09:31:23;104052.66;;;7.56;100.00
11440;BME280;5776;51.814;4.510;2023-02-12T09:33:52;104051.84;;;7.55;100.00
11440;BME280;5776;51.814;4.510;2023-02-12T09:36:19;104044.56;;;7.56;100.00
11440;BME280;5776;51.814;4.510;2023-02-12T09:38:45;104044.38;;;7.57;100.00
11440;BME280;5776;51.814;4.510;2023-02-12T09:41:29;104042.69;;;7.56;100.00
11440;BME280;5776;51.814;4.510;2023-02-12T09:47:05;104044.38;;;7.57;100.00
11440;BME280;5776;51.814;4.510;2023-02-12T09:52:19;104036.25;;;7.57;100.00
11440;BME280;5776;51.814;4.510;2023-02-12T09:54:47;104041.47;;;7.59;100.00
11440;BME280;5776;51.814;4.510;2023-02-12T09:57:28;104042.28;;;7.60;100.00
11440;BME280;5776;51.814;4.510;2023-02-12T10:00:00;104042.28;;;7.60;100.00
11440;BME280;5776;51.814;4.510;2023-02-12T10:02:27;104040.25;;;7.62;100.00
11440;BME280;5776;51.814;4.510;2023-02-12T10:04:53;104037.75;;;7.60;100.00
11440;BME280;5776;51.814;4.510;2023-02-12T10:13:00;104044.66;;;7.63;100.00
11440;BME280;5776;51.814;4.510;2023-02-12T10:16:09;104041.94;;;7.63;100.00
11440;BME280;5776;51.814;4.510;2023-02-12T10:26:51;104036.53;;;7.63;100.00
11440;BME280;5776;51.814;4.510;2023-02-12T10:29:22;104040.50;;;7.67;100.00
11440;BME280;5776;51.814;4.510;2023-02-12T10:31:52;104040.50;;;7.67;100.00
11440;BME280;5776;51.814;4.510;2023-02-12T10:34:30;104043.22;;;7.67;100.00
11440;BME280;5776;51.814;4.510;2023-02-12T10:37:16;104046.97;;;7.66;100.00
11440;BME280;5776;51.814;4.510;2023-02-12T10:39:57;104045.91;;;7.67;100.00
11440;BME280;5776;51.814;4.510;2023-02-12T10:42:33;104041.56;;;7.66;100.00
11440;BME280;5776;51.814;4.510;2023-02-12T10:45:00;104044.06;;;7.67;100.00
11440;BME280;5776;51.814;4.510;2023-02-12T10:47:26;104040.34;;;7.68;100.00
11440;BME280;5776;51.814;4.510;2023-02-12T10:50:00;104035.94;;;7.67;100.00
11440;BME280;5776;51.814;4.510;2023-02-12T10:52:38;104038.47;;;7.69;100.00
11440;BME280;5776;51.814;4.510;2023-02-12T10:57:51;104047.22;;;7.71;100.00
11440;BME280;5776;51.814;4.510;2023-02-12T11:00:28;104046.41;;;7.70;100.00
11440;BME280;5776;51.814;4.510;2023-02-12T11:05:33;104041.59;;;7.72;100.00
11440;BME280;5776;51.814;4.510;2023-02-12T11:07:59;104038.06;;;7.72;100.00
11440;BME280;5776;51.814;4.510;2023-02-12T11:10:32;104034.16;;;7.74;100.00
11440;BME280;5776;51.814;4.510;2023-02-12T11:13:00;104031.66;;;7.73;100.00
11440;BME280;5776;51.814;4.510;2023-02-12T11:15:31;104037.91;;;7.73;100.00
11440;BME280;5776;51.814;4.510;2023-02-12T11:18:03;104038.72;;;7.74;100.00
11440;BME280;5776;51.814;4.510;2023-02-12T11:20:50;104040.41;;;7.75;100.00
11440;BME280;5776;51.814;4.510;2023-02-12T11:23:26;104029.59;;;7.75;100.00
11440;BME280;5776;51.814;4.510;2023-02-12T11:31:59;104034.78;;;7.76;100.00
11440;BME280;5776;51.814;4.510;2023-02-12T11:34:25;104035.63;;;7.77;100.00
11440;BME280;5776;51.814;4.510;2023-02-12T11:36:52;104034.63;;;7.78;100.00
11440;BME280;5776;51.814;4.510;2023-02-12T11:39:29;104036.28;;;7.79;100.00
11440;BME280;5776;51.814;4.510;2023-02-12T11:44:27;104036.28;;;7.79;100.00
11440;BME280;5776;51.814;4.510;2023-02-12T11:47:02;104021.75;;;7.80;100.00
11440;BME280;5776;51.814;4.510;2023-02-12T11:49:47;104025.28;;;7.81;100.00
11440;BME280;5776;51.814;4.510;2023-02-12T11:52:21;104019.66;;;7.82;100.00
11440;BME280;5776;51.814;4.510;2023-02-12T11:54:48;104025.94;;;7.83;100.00
11440;BME280;5776;51.814;4.510;2023-02-12T12:00:01;104018.66;;;7.83;100.00
11440;BME280;5776;51.814;4.510;2023-02-12T12:02:31;104010.53;;;7.83;100.00
11440;BME280;5776;51.814;4.510;2023-02-12T12:05:21;104010.53;;;7.83;100.00
11440;BME280;5776;51.814;4.510;2023-02-12T12:07:57;104014.91;;;7.84;100.00
11440;BME280;5776;51.814;4.510;2023-02-12T12:10:32;104013.88;;;7.85;100.00
11440;BME280;5776;51.814;4.510;2023-02-12T12:13:03;104017.41;;;7.86;100.00
11440;BME280;5776;51.814;4.510;2023-02-12T12:15:34;104006.59;;;7.86;100.00
11440;BME280;5776;51.814;4.510;2023-02-12T12:21:46;104009.09;;;7.87;100.00
11440;BME280;5776;51.814;4.510;2023-02-12T12:24:30;104004.53;;;7.88;100.00
11440;BME280;5776;51.814;4.510;2023-02-12T12:27:03;104009.75;;;7.89;100.00
11440;BME280;5776;51.814;4.510;2023-02-12T12:29:54;104000.63;;;7.90;100.00
11440;BME280;5776;51.814;4.510;2023-02-12T12:32:25;103996.22;;;7.89;100.00
11440;BME280;5776;51.814;4.510;2023-02-12T12:34:54;104000.63;;;7.90;100.00
11440;BME280;5776;51.814;4.510;2023-02-12T12:37:37;103997.91;;;7.90;100.00
11440;BME280;5776;51.814;4.510;2023-02-12T12:45:34;103993.13;;;7.92;100.00
11440;BME280;5776;51.814;4.510;2023-02-12T13:02:15;103978.34;;;7.95;100.00
11440;BME280;5776;51.814;4.510;2023-02-12T13:13:47;103969.66;;;7.99;100.00
11440;BME280;5776;51.814;4.510;2023-02-12T13:16:55;103966.59;;;8.03;100.00
11440;BME280;5776;51.814;4.510;2023-02-12T13:22:44;103959.47;;;8.01;100.00
11440;BME280;5776;51.814;4.510;2023-02-12T13:28:04;103955.94;;;8.01;100.00
11440;BME280;5776;51.814;4.510;2023-02-12T13:30:38;103958.47;;;8.03;100.00
11440;BME280;5776;51.814;4.510;2023-02-12T13:33:09;103952.00;;;8.04;100.00
11440;BME280;5776;51.814;4.510;2023-02-12T13:35:40;103952.84;;;8.04;100.00
11440;BME280;5776;51.814;4.510;2023-02-12T13:38:08;103948.47;;;8.03;100.00
11440;BME280;5776;51.814;4.510;2023-02-12T13:40:40;103949.13;;;8.05;100.00
11440;BME280;5776;51.814;4.510;2023-02-12T13:45:52;103944.53;;;8.06;100.00
11440;BME280;5776;51.814;4.510;2023-02-12T13:48:46;103939.94;;;8.06;100.00
11440;BME280;5776;51.814;4.510;2023-02-12T13:51:27;103940.78;;;8.07;100.00
11440;BME280;5776;51.814;4.510;2023-02-12T13:56:54;103937.06;;;8.08;100.00
11440;BME280;5776;51.814;4.510;2023-02-12T14:02:26;103927.25;;;8.07;100.00
11440;BME280;5776;51.814;4.510;2023-02-12T14:07:49;103920.81;;;8.08;100.00
11440;BME280;5776;51.814;4.510;2023-02-12T14:10:34;103910.81;;;8.08;100.00
11440;BME280;5776;51.814;4.510;2023-02-12T14:15:40;103914.16;;;8.10;100.00
11440;BME280;5776;51.814;4.510;2023-02-12T14:18:24;103915.00;;;8.11;100.00
11440;BME280;5776;51.814;4.510;2023-02-12T14:23:36;103901.47;;;8.11;100.00
11440;BME280;5776;51.814;4.510;2023-02-12T14:26:04;103899.59;;;8.11;100.00
11440;BME280;5776;51.814;4.510;2023-02-12T14:28:46;103906.66;;;8.12;100.00
11440;BME280;5776;51.814;4.510;2023-02-12T14:33:52;103898.53;;;8.12;100.00
11440;BME280;5776;51.814;4.510;2023-02-12T14:36:37;103910.84;;;8.15;100.00
11440;BME280;5776;51.814;4.510;2023-02-12T14:39:26;103905.66;;;8.13;100.00
11440;BME280;5776;51.814;4.510;2023-02-12T14:44:42;103900.03;;;8.15;100.00
11440;BME280;5776;51.814;4.510;2023-02-12T14:49:43;103900.03;;;8.15;100.00
11440;BME280;5776;51.814;4.510;2023-02-12T14:52:13;103898.19;;;8.15;100.00
11440;BME280;5776;51.814;4.510;2023-02-12T14:55:02;103902.53;;;8.16;100.00
11440;BME280;5776;51.814;4.510;2023-02-12T14:57:38;103900.03;;;8.15;100.00
11440;BME280;5776;51.814;4.510;2023-02-12T15:00:19;103899.84;;;8.16;100.00
11440;BME280;5776;51.814;4.510;2023-02-12T15:05:41;103889.00;;;8.16;100.00
11440;BME280;5776;51.814;4.510;2023-02-12T15:10:52;103890.66;;;8.17;100.00
11440;BME280;5776;51.814;4.510;2023-02-12T15:13:25;103890.31;;;8.20;100.00
11440;BME280;5776;51.814;4.510;2023-02-12T15:21:46;103884.88;;;8.20;100.00
11440;BME280;5776;51.814;4.510;2023-02-12T15:24:20;103881.31;;;8.20;100.00
11440;BME280;5776;51.814;4.510;2023-02-12T15:26:50;103881.31;;;8.20;100.00
11440;BME280;5776;51.814;4.510;2023-02-12T15:29:21;103881.31;;;8.20;100.00
11440;BME280;5776;51.814;4.510;2023-02-12T15:31:50;103875.91;;;8.20;100.00
11440;BME280;5776;51.814;4.510;2023-02-12T15:34:19;103883.00;;;8.21;100.00
11440;BME280;5776;51.814;4.510;2023-02-12T15:36:47;103883.00;;;8.21;100.00
11440;BME280;5776;51.814;4.510;2023-02-12T15:39:16;103884.66;;;8.22;100.00
11440;BME280;5776;51.814;4.510;2023-02-12T15:41:45;103884.66;;;8.22;100.00
11440;BME280;5776;51.814;4.510;2023-02-12T15:44:28;103881.97;;;8.22;100.00
11440;BME280;5776;51.814;4.510;2023-02-12T15:49:36;103880.94;;;8.23;100.00
11440;BME280;5776;51.814;4.510;2023-02-12T15:52:23;103882.78;;;8.22;100.00